createdAt,value
2018-08-11T11:47:13.320Z,24.40
2018-08-11T11:49:41.795Z,24.52
2018-08-11T11:52:10.146Z,24.57
2018-08-11T11:54:38.429Z,24.63
2018-08-11T11:57:07.088Z,24.68
2018-08-11T11:59:35.288Z,24.66
2018-08-11T12:02:03.825Z,24.67
2018-08-11T12:04:32.147Z,24.67
2018-08-11T12:07:00.424Z,24.70
2018-08-11T12:09:28.707Z,24.71
2018-08-11T12:11:56.964Z,24.68
2018-08-11T12:14:25.204Z,24.71
2018-08-11T12:16:53.406Z,24.70
2018-08-11T12:19:21.742Z,24.72
2018-08-11T12:28:50.926Z,24.83
2018-08-11T12:31:19.166Z,24.88
2018-08-11T12:33:47.520Z,24.90
2018-08-11T12:36:15.977Z,24.85
2018-08-11T12:38:44.228Z,24.91
2018-08-11T12:41:12.482Z,24.93
2018-08-11T12:43:40.852Z,24.98
2018-08-11T12:46:09.115Z,24.98
2018-08-11T12:48:37.344Z,25.01
2018-08-11T12:51:05.594Z,25.00
2018-08-11T12:53:33.995Z,25.03
2018-08-11T12:56:02.158Z,25.05
2018-08-11T12:58:30.467Z,25.04
2018-08-11T13:00:58.742Z,25.04
2018-08-11T13:03:27.086Z,25.04
2018-08-11T13:05:55.331Z,25.05
2018-08-11T13:08:23.637Z,25.05
2018-08-11T13:10:51.878Z,25.07
2018-08-11T13:13:20.106Z,25.04
2018-08-11T13:15:48.346Z,25.02
2018-08-11T13:18:16.608Z,25.03
2018-08-11T13:20:44.919Z,24.85
2018-08-11T13:23:13.113Z,24.95
2018-08-11T13:25:41.375Z,25.00
2018-08-11T13:28:09.675Z,24.97
2018-08-11T13:30:37.962Z,24.92
2018-08-11T13:33:06.479Z,24.88
2018-08-11T13:35:34.761Z,24.91
2018-08-11T13:38:03.040Z,24.89
2018-08-11T13:40:31.330Z,24.89
2018-08-11T13:42:59.550Z,24.90
2018-08-11T13:45:28.006Z,24.93
2018-08-11T13:47:56.285Z,24.98
2018-08-11T13:50:24.490Z,25.02
2018-08-11T13:52:52.782Z,25.11
2018-08-11T13:55:21.132Z,25.11
2018-08-11T13:57:49.489Z,25.15
2018-08-11T14:00:17.702Z,25.10
2018-08-11T14:02:46.101Z,25.10
2018-08-11T14:05:14.390Z,25.14
2018-08-11T14:07:42.789Z,25.18
2018-08-11T14:10:11.709Z,25.20
2018-08-11T14:12:40.059Z,25.19
2018-08-11T14:15:08.782Z,25.18
2018-08-11T14:17:37.250Z,25.16
2018-08-11T14:20:06.670Z,25.14
2018-08-11T14:22:34.990Z,25.11
2018-08-11T14:25:03.286Z,25.08
2018-08-11T14:27:31.551Z,25.09
2018-08-11T14:29:59.855Z,25.06
2018-08-11T14:32:28.165Z,25.10
